createdAt,value
2018-08-23T00:00:16.685Z,29.00
2018-08-23T00:01:16.691Z,29.20
2018-08-23T00:02:16.708Z,27.80
2018-08-23T00:03:16.703Z,29.10
2018-08-23T00:04:16.726Z,30.00
2018-08-23T00:05:16.717Z,28.60
2018-08-23T00:06:16.724Z,28.10
2018-08-23T00:07:16.732Z,30.00
2018-08-23T00:08:16.736Z,29.40
2018-08-23T00:09:16.748Z,28.10
2018-08-23T00:10:16.752Z,28.40
2018-08-23T00:11:16.749Z,29.00
2018-08-23T00:12:16.769Z,29.20
2018-08-23T00:13:16.765Z,28.20
2018-08-23T00:14:16.772Z,28.90
2018-08-23T00:15:16.774Z,29.10
2018-08-23T00:16:16.806Z,28.90
2018-08-23T00:17:16.787Z,29.80
2018-08-23T00:18:16.788Z,29.30
2018-08-23T00:19:16.808Z,29.90
2018-08-23T00:20:16.797Z,30.90
2018-08-23T00:21:16.807Z,28.30
2018-08-23T00:22:16.812Z,28.70
2018-08-23T00:23:16.818Z,28.70
2018-08-23T00:24:16.822Z,29.10
2018-08-23T00:25:16.827Z,29.30
2018-08-23T00:26:16.831Z,28.90
2018-08-23T00:27:16.877Z,28.10
2018-08-23T00:28:16.878Z,28.90
2018-08-23T00:29:16.847Z,28.20
2018-08-23T00:30:16.859Z,28.90
2018-08-23T00:31:16.869Z,28.20
2018-08-23T00:32:16.864Z,29.60
2018-08-23T00:33:16.874Z,28.50
2018-08-23T00:34:16.877Z,29.10
2018-08-23T00:35:16.881Z,28.30
2018-08-23T00:36:16.893Z,29.00
2018-08-23T00:37:16.899Z,28.50
2018-08-23T00:38:16.897Z,27.80
2018-08-23T00:39:16.905Z,28.50
2018-08-23T00:40:16.912Z,29.00
2018-08-23T00:41:16.921Z,28.60
2018-08-23T00:42:16.919Z,27.50
2018-08-23T00:43:16.929Z,28.50
2018-08-23T00:44:16.931Z,28.30
2018-08-23T00:45:16.940Z,29.20
2018-08-23T00:46:16.947Z,29.00
2018-08-23T00:47:16.959Z,29.90
2018-08-23T00:48:16.959Z,29.20
2018-08-23T00:49:16.960Z,29.00
2018-08-23T00:50:16.967Z,28.70
2018-08-23T00:51:16.971Z,27.70
2018-08-23T00:52:16.977Z,27.40
2018-08-23T00:53:16.979Z,28.50
2018-08-23T00:54:17.064Z,28.60
2018-08-23T00:55:16.994Z,28.80
2018-08-23T00:56:16.997Z,28.30
2018-08-23T00:57:17.002Z,28.30
2018-08-23T00:58:17.009Z,27.80
2018-08-23T00:59:17.017Z,28.90
2018-08-23T01:00:17.019Z,28.30
2018-08-23T01:01:17.021Z,29.10
2018-08-23T01:02:17.029Z,28.80
2018-08-23T01:03:17.028Z,26.30
2018-08-23T01:04:17.039Z,27.90
2018-08-23T01:05:17.045Z,28.80
2018-08-23T01:06:17.048Z,28.30
2018-08-23T01:07:17.056Z,28.60
2018-08-23T01:08:17.057Z,29.30
2018-08-23T01:09:17.067Z,27.60
2018-08-23T01:10:17.071Z,26.80
2018-08-23T01:11:17.079Z,30.40
2018-08-23T01:12:17.083Z,28.10
2018-08-23T01:13:17.086Z,27.20
2018-08-23T01:14:17.095Z,28.80
2018-08-23T01:15:17.094Z,28.10
2018-08-23T01:16:17.105Z,27.40
2018-08-23T01:17:17.112Z,27.70
2018-08-23T01:18:17.116Z,27.20
2018-08-23T01:19:17.118Z,27.50
2018-08-23T01:20:17.120Z,27.60
2018-08-23T01:21:17.131Z,27.20
2018-08-23T01:22:17.137Z,27.80
2018-08-23T01:23:17.138Z,27.60
2018-08-23T01:24:17.144Z,27.80
2018-08-23T01:25:17.150Z,27.90
2018-08-23T01:26:17.154Z,28.30
2018-08-23T01:27:17.161Z,27.60
2018-08-23T01:28:17.161Z,27.50
2018-08-23T01:29:17.165Z,28.80
2018-08-23T01:30:17.170Z,27.20
2018-08-23T01:31:17.181Z,28.20
2018-08-23T01:32:17.180Z,28.30
2018-08-23T01:33:17.194Z,27.80
2018-08-23T01:34:17.191Z,27.90
2018-08-23T01:35:17.201Z,26.30
2018-08-23T01:36:17.207Z,26.80
2018-08-23T01:37:17.205Z,28.70
2018-08-23T01:38:17.217Z,26.90
2018-08-23T01:39:17.220Z,27.20
2018-08-23T01:40:17.221Z,29.10
2018-08-23T01:41:17.233Z,28.20
2018-08-23T01:42:17.229Z,27.10
2018-08-23T01:43:17.238Z,27.90
2018-08-23T01:44:17.246Z,27.50
2018-08-23T01:45:17.250Z,27.00
2018-08-23T01:46:17.258Z,27.70
2018-08-23T01:47:17.261Z,26.40
2018-08-23T01:48:17.270Z,28.20
2018-08-23T01:49:17.267Z,27.20
2018-08-23T01:50:17.276Z,28.30
2018-08-23T01:51:17.283Z,26.20
2018-08-23T01:52:17.283Z,27.50
2018-08-23T01:53:17.292Z,28.20
2018-08-23T01:54:17.293Z,27.40
2018-08-23T01:55:17.302Z,27.30
2018-08-23T01:56:17.303Z,27.10
2018-08-23T01:57:17.308Z,27.30
2018-08-23T01:58:17.318Z,27.30
2018-08-23T01:59:17.320Z,26.40
2018-08-23T02:00:17.327Z,27.80
2018-08-23T02:01:17.332Z,27.70
2018-08-23T02:02:17.330Z,27.50
2018-08-23T02:03:17.342Z,26.60
2018-08-23T02:04:17.339Z,26.00
2018-08-23T02:05:17.352Z,27.30
2018-08-23T02:06:17.350Z,28.50
2018-08-23T02:07:17.363Z,28.00
2018-08-23T02:08:17.359Z,27.30
2018-08-23T02:09:17.364Z,28.60
2018-08-23T02:10:17.377Z,26.90
2018-08-23T02:11:17.375Z,27.20
2018-08-23T02:12:17.385Z,26.20
2018-08-23T02:13:17.387Z,27.10
2018-08-23T02:14:17.388Z,26.40
2018-08-23T02:15:17.401Z,27.80
2018-08-23T02:16:18.709Z,27.80
2018-08-23T02:17:17.407Z,26.80
2018-08-23T02:18:17.410Z,27.40
2018-08-23T02:19:17.413Z,26.90
2018-08-23T02:20:17.422Z,27.70
2018-08-23T02:21:17.427Z,27.30
2018-08-23T02:22:17.431Z,28.00
2018-08-23T02:23:17.444Z,27.70
2018-08-23T02:24:17.438Z,28.30
2018-08-23T02:25:17.443Z,28.20
2018-08-23T02:26:17.451Z,28.90
2018-08-23T02:27:17.462Z,27.90
2018-08-23T02:28:17.459Z,27.80
2018-08-23T02:29:17.464Z,27.90
2018-08-23T02:30:17.480Z,28.20
2018-08-23T02:31:17.475Z,28.70
2018-08-23T02:32:17.481Z,29.20
2018-08-23T02:33:17.495Z,28.10
2018-08-23T02:34:17.493Z,27.70
2018-08-23T02:35:17.493Z,28.60
2018-08-23T02:36:17.496Z,28.00
2018-08-23T02:37:17.516Z,28.60
2018-08-23T02:38:17.589Z,29.70
2018-08-23T02:39:17.516Z,29.00
2018-08-23T02:40:17.513Z,29.20
2018-08-23T02:41:17.520Z,28.90
2018-08-23T02:42:17.532Z,30.50
2018-08-23T02:43:17.530Z,29.40
2018-08-23T02:44:17.548Z,28.90
2018-08-23T02:45:17.550Z,30.10
2018-08-23T02:46:17.547Z,30.00
2018-08-23T02:47:17.554Z,29.70
2018-08-23T02:48:17.553Z,29.20
2018-08-23T02:49:17.558Z,29.90
2018-08-23T02:50:17.567Z,29.00
2018-08-23T02:51:17.569Z,29.80
2018-08-23T02:52:17.576Z,30.20
2018-08-23T02:53:17.571Z,31.10
2018-08-23T02:54:17.585Z,31.50
2018-08-23T02:55:17.588Z,31.10
2018-08-23T02:56:17.592Z,30.90
2018-08-23T02:57:17.598Z,31.00
2018-08-23T02:58:17.597Z,30.70
2018-08-23T02:59:17.605Z,30.40
2018-08-23T03:00:17.613Z,30.50
2018-08-23T03:01:17.621Z,30.80
2018-08-23T03:02:17.616Z,31.10
2018-08-23T03:03:17.625Z,31.00
2018-08-23T03:04:17.629Z,31.80
2018-08-23T03:05:17.639Z,31.00
2018-08-23T03:06:17.637Z,30.60
2018-08-23T03:07:17.646Z,31.20
2018-08-23T03:08:17.651Z,32.00
2018-08-23T03:09:17.656Z,31.60
2018-08-23T03:10:17.656Z,30.90
2018-08-23T03:11:17.711Z,30.80
2018-08-23T03:12:17.662Z,30.50
2018-08-23T03:13:17.670Z,30.50
2018-08-23T03:14:17.678Z,30.90
2018-08-23T03:15:17.674Z,30.00
2018-08-23T03:16:17.714Z,30.60
2018-08-23T03:17:17.685Z,30.00
2018-08-23T03:18:17.689Z,30.20
2018-08-23T03:19:17.706Z,28.90
2018-08-23T03:20:17.695Z,30.80
2018-08-23T03:21:17.706Z,29.70
2018-08-23T03:22:17.707Z,29.80
2018-08-23T03:23:17.715Z,31.50
2018-08-23T03:24:17.725Z,31.30
2018-08-23T03:25:17.723Z,30.20
2018-08-23T03:26:17.729Z,30.90
2018-08-23T03:27:17.735Z,31.50
2018-08-23T03:28:17.734Z,31.60
2018-08-23T03:29:17.737Z,31.70
2018-08-23T03:30:17.747Z,31.10
2018-08-23T03:31:17.752Z,31.40
2018-08-23T03:32:17.756Z,30.80
2018-08-23T03:33:17.754Z,30.60
2018-08-23T03:34:17.760Z,31.00
2018-08-23T03:35:17.769Z,30.70
2018-08-23T03:36:17.769Z,30.90
2018-08-23T03:37:17.780Z,30.90
2018-08-23T03:38:17.775Z,31.50
2018-08-23T03:39:17.788Z,30.20
2018-08-23T03:40:17.793Z,30.90
2018-08-23T03:41:17.803Z,30.10
2018-08-23T03:42:17.793Z,30.80
2018-08-23T03:43:17.806Z,30.30
2018-08-23T03:44:17.805Z,31.20
2018-08-23T03:45:17.809Z,31.80
2018-08-23T03:46:17.819Z,30.70
2018-08-23T03:47:17.817Z,31.70
2018-08-23T03:48:17.827Z,31.20
2018-08-23T03:49:17.832Z,31.60
2018-08-23T03:50:17.829Z,31.80
2018-08-23T03:51:17.836Z,32.50
2018-08-23T03:52:17.846Z,32.10
2018-08-23T03:53:17.847Z,33.00
2018-08-23T03:54:17.864Z,31.10
2018-08-23T03:55:17.867Z,31.20
2018-08-23T03:56:17.864Z,30.70
2018-08-23T03:57:17.863Z,32.50
2018-08-23T03:58:17.873Z,31.60
2018-08-23T03:59:17.868Z,30.50
2018-08-23T04:00:17.881Z,31.20
2018-08-23T04:01:17.880Z,32.90
2018-08-23T04:02:17.888Z,31.80
2018-08-23T04:03:17.893Z,33.60
2018-08-23T04:04:17.892Z,32.40
2018-08-23T04:05:17.904Z,32.70
2018-08-23T04:06:17.906Z,32.30
2018-08-23T04:07:17.901Z,32.70
2018-08-23T04:08:17.913Z,32.30
2018-08-23T04:09:17.917Z,33.00
2018-08-23T04:10:17.917Z,32.60
2018-08-23T04:11:17.928Z,34.10
2018-08-23T04:12:17.928Z,31.50
2018-08-23T04:13:17.934Z,32.90
2018-08-23T04:14:17.933Z,32.60
2018-08-23T04:15:17.966Z,32.00
2018-08-23T04:16:17.953Z,33.10
2018-08-23T04:17:17.955Z,31.50
2018-08-23T04:18:17.962Z,32.20
2018-08-23T04:19:17.958Z,32.80
2018-08-23T04:20:17.960Z,31.70
2018-08-23T04:21:17.968Z,32.90
2018-08-23T04:22:17.963Z,33.00
2018-08-23T04:23:17.974Z,33.50
2018-08-23T04:24:17.984Z,33.30
2018-08-23T04:25:17.981Z,33.20
2018-08-23T04:26:17.992Z,32.30
2018-08-23T04:27:17.993Z,33.00
2018-08-23T04:28:17.995Z,32.80
2018-08-23T04:29:18.037Z,34.20
2018-08-23T04:30:18.009Z,32.40
2018-08-23T04:31:18.013Z,33.50
2018-08-23T04:32:18.015Z,33.50
2018-08-23T04:33:18.020Z,33.10
2018-08-23T04:34:18.019Z,33.50
2018-08-23T04:35:18.030Z,32.90
2018-08-23T04:36:18.030Z,33.70
2018-08-23T04:37:18.031Z,32.70
2018-08-23T04:38:18.055Z,31.70
2018-08-23T04:39:18.042Z,33.70
2018-08-23T04:40:18.056Z,34.10
2018-08-23T04:41:18.061Z,33.30
2018-08-23T04:42:18.060Z,33.60
2018-08-23T04:43:18.130Z,33.60
2018-08-23T04:44:18.061Z,33.30
2018-08-23T04:45:18.072Z,33.10
2018-08-23T04:46:18.070Z,34.20
2018-08-23T04:47:18.083Z,33.30
2018-08-23T04:48:18.081Z,33.20
2018-08-23T04:49:18.084Z,32.60
2018-08-23T04:50:18.093Z,34.00
2018-08-23T04:51:18.095Z,34.00
2018-08-23T04:52:18.117Z,33.00
2018-08-23T04:53:18.102Z,32.10
2018-08-23T04:54:18.104Z,32.30
2018-08-23T04:55:18.110Z,32.40
2018-08-23T04:56:18.116Z,33.00
2018-08-23T04:57:18.120Z,32.50
2018-08-23T04:58:18.128Z,32.00
2018-08-23T04:59:18.127Z,31.90
2018-08-23T05:00:18.130Z,32.70
2018-08-23T05:01:18.140Z,32.10
2018-08-23T05:02:18.139Z,33.70
2018-08-23T05:03:18.198Z,31.20
2018-08-23T05:04:18.154Z,32.20
2018-08-23T05:05:18.152Z,32.80
2018-08-23T05:06:18.186Z,33.00
2018-08-23T05:07:18.168Z,31.60
2018-08-23T05:08:18.167Z,33.00
2018-08-23T05:09:18.175Z,32.90
2018-08-23T05:10:18.180Z,32.00
2018-08-23T05:11:18.180Z,32.60
2018-08-23T05:12:18.190Z,32.00
2018-08-23T05:13:18.194Z,31.50
2018-08-23T05:14:18.195Z,30.90
2018-08-23T05:15:18.199Z,30.90
2018-08-23T05:16:18.203Z,31.10
2018-08-23T05:17:18.212Z,31.90
2018-08-23T05:18:18.212Z,30.70
2018-08-23T05:19:18.215Z,31.30
2018-08-23T05:20:18.223Z,30.30
2018-08-23T05:21:18.224Z,31.40
2018-08-23T05:22:18.237Z,32.50
2018-08-23T05:23:18.261Z,31.60
2018-08-23T05:24:18.245Z,32.20
2018-08-23T05:25:18.246Z,30.20
2018-08-23T05:26:18.250Z,31.10
2018-08-23T05:27:18.252Z,30.60
2018-08-23T05:28:18.254Z,29.60
2018-08-23T05:29:18.263Z,31.10
2018-08-23T05:30:18.267Z,29.50
2018-08-23T05:31:18.272Z,31.30
2018-08-23T05:32:18.279Z,29.90
2018-08-23T05:33:18.287Z,29.30
2018-08-23T05:34:18.293Z,30.70
2018-08-23T05:35:18.291Z,30.50
2018-08-23T05:36:18.302Z,30.20
2018-08-23T05:37:18.313Z,30.20
2018-08-23T05:38:18.303Z,27.80
2018-08-23T05:39:18.325Z,29.90
2018-08-23T05:40:18.313Z,29.50
2018-08-23T05:41:18.323Z,28.90
2018-08-23T05:42:18.328Z,28.40
2018-08-23T05:43:18.333Z,29.50
2018-08-23T05:44:18.342Z,28.70
2018-08-23T05:45:18.341Z,27.70
2018-08-23T05:46:18.350Z,27.50
2018-08-23T05:47:18.354Z,28.60
2018-08-23T05:48:18.359Z,29.00
2018-08-23T05:49:18.368Z,28.70
2018-08-23T05:50:18.367Z,28.20
2018-08-23T05:51:18.381Z,28.50
2018-08-23T05:52:18.379Z,28.80
2018-08-23T05:53:18.383Z,27.80
2018-08-23T05:54:18.397Z,28.70
2018-08-23T05:55:18.405Z,28.50
2018-08-23T05:56:18.467Z,27.10
2018-08-23T05:57:18.407Z,27.30
2018-08-23T05:58:18.417Z,28.20
2018-08-23T05:59:18.422Z,28.10
2018-08-23T06:00:18.426Z,28.80
2018-08-23T06:01:18.436Z,27.10
2018-08-23T06:02:18.460Z,28.30
2018-08-23T06:03:18.450Z,27.70
2018-08-23T06:04:18.463Z,27.10
2018-08-23T06:05:18.462Z,27.60
2018-08-23T06:06:18.466Z,28.10
2018-08-23T06:07:18.476Z,26.50
2018-08-23T06:08:18.524Z,26.30
2018-08-23T06:09:18.475Z,28.00
2018-08-23T06:10:18.492Z,25.40
2018-08-23T06:11:18.490Z,26.40
2018-08-23T06:12:18.505Z,26.20
2018-08-23T06:13:18.511Z,24.90
2018-08-23T06:14:18.584Z,26.70
2018-08-23T06:15:18.543Z,25.50
2018-08-23T06:16:18.522Z,25.80
2018-08-23T06:17:18.534Z,25.30
2018-08-23T06:18:18.548Z,25.60
2018-08-23T06:19:18.548Z,25.90
2018-08-23T06:20:18.567Z,25.40
2018-08-23T06:21:18.565Z,24.90
2018-08-23T06:22:18.568Z,25.70
2018-08-23T06:23:18.582Z,24.80
2018-08-23T06:24:18.585Z,24.20
2018-08-23T06:25:18.595Z,25.20
2018-08-23T06:26:18.605Z,23.80
2018-08-23T06:27:18.663Z,24.00
2018-08-23T06:28:18.623Z,24.20
2018-08-23T06:29:18.679Z,23.50
2018-08-23T06:30:18.664Z,24.30
2018-08-23T06:31:18.648Z,23.80
2018-08-23T06:32:18.654Z,23.50
2018-08-23T06:33:18.721Z,25.80
2018-08-23T06:34:18.679Z,24.20
2018-08-23T06:35:18.690Z,25.20
2018-08-23T06:36:18.694Z,25.20
2018-08-23T06:37:18.701Z,25.20
2018-08-23T06:38:18.719Z,24.30
2018-08-23T06:39:18.721Z,24.90
2018-08-23T06:40:18.722Z,25.50
2018-08-23T06:41:18.739Z,24.10
2018-08-23T06:42:18.747Z,24.60
2018-08-23T06:43:18.749Z,25.30
2018-08-23T06:44:18.767Z,25.10
2018-08-23T06:45:18.771Z,26.50
2018-08-23T06:46:18.781Z,26.30
2018-08-23T06:47:18.793Z,26.10
2018-08-23T06:48:18.796Z,24.90
2018-08-23T06:49:18.819Z,25.30
2018-08-23T06:50:18.818Z,25.60
2018-08-23T06:51:18.874Z,25.00
2018-08-23T06:52:18.843Z,25.00
2018-08-23T06:53:18.849Z,25.00
2018-08-23T06:54:18.854Z,26.00
2018-08-23T06:55:18.868Z,25.30
2018-08-23T06:56:19.593Z,24.70
2018-08-23T06:57:18.887Z,25.50
2018-08-23T06:58:18.897Z,25.30
2018-08-23T06:59:18.904Z,24.00
2018-08-23T07:00:18.917Z,24.50
2018-08-23T07:01:18.927Z,24.10
2018-08-23T07:02:18.940Z,24.50
2018-08-23T07:03:18.955Z,24.40
2018-08-23T07:04:18.958Z,25.20
2018-08-23T07:05:19.017Z,24.10
2018-08-23T07:06:18.982Z,24.10
2018-08-23T07:07:18.999Z,24.10
2018-08-23T07:08:19.011Z,23.60
2018-08-23T07:09:19.022Z,23.90
2018-08-23T07:10:19.027Z,24.20
2018-08-23T07:11:19.045Z,22.50
2018-08-23T07:12:19.046Z,24.70
2018-08-23T07:13:19.059Z,24.00
2018-08-23T07:14:19.080Z,23.10
2018-08-23T07:15:19.084Z,23.00
2018-08-23T07:16:19.112Z,22.30
2018-08-23T07:17:19.249Z,22.70
2018-08-23T07:18:19.132Z,22.00
2018-08-23T07:19:19.145Z,21.90
2018-08-23T07:20:19.154Z,22.20
2018-08-23T07:21:19.170Z,21.20
2018-08-23T07:22:19.181Z,21.90
2018-08-23T07:23:20.135Z,21.30
2018-08-23T07:24:19.270Z,21.40
2018-08-23T07:25:19.226Z,21.60
2018-08-23T07:26:19.263Z,21.50
2018-08-23T07:27:19.256Z,20.70
2018-08-23T07:28:19.272Z,22.10
2018-08-23T07:29:19.279Z,22.30
2018-08-23T07:30:19.339Z,22.10
2018-08-23T07:31:19.312Z,23.50
2018-08-23T07:32:19.332Z,22.40
2018-08-23T07:33:19.339Z,22.70
2018-08-23T07:34:19.354Z,22.30
2018-08-23T07:35:19.378Z,22.00
2018-08-23T07:36:19.391Z,22.90
2018-08-23T07:37:19.407Z,22.20
2018-08-23T07:38:19.414Z,22.20
2018-08-23T07:39:19.475Z,22.20
2018-08-23T07:40:19.450Z,22.20
2018-08-23T07:41:19.465Z,22.70
2018-08-23T07:42:19.483Z,23.40
2018-08-23T07:43:19.505Z,23.00
2018-08-23T07:44:19.509Z,24.20
2018-08-23T07:45:19.533Z,21.60
2018-08-23T07:46:19.545Z,23.00
2018-08-23T07:47:19.564Z,21.80
2018-08-23T07:48:19.589Z,22.30
2018-08-23T07:49:19.644Z,21.50
2018-08-23T07:50:19.617Z,21.50
2018-08-23T07:51:19.648Z,21.00
2018-08-23T07:52:19.646Z,21.10
2018-08-23T07:53:19.843Z,20.00
2018-08-23T07:54:19.687Z,20.50
2018-08-23T07:55:19.697Z,20.70
2018-08-23T07:56:19.719Z,20.50
2018-08-23T07:57:19.742Z,19.50
2018-08-23T07:58:19.753Z,19.40
2018-08-23T07:59:19.778Z,20.20
2018-08-23T08:00:19.795Z,18.70
2018-08-23T08:01:19.807Z,17.80
2018-08-23T08:02:19.825Z,18.60
2018-08-23T08:03:19.849Z,19.50
2018-08-23T08:04:19.868Z,18.90
2018-08-23T08:05:19.878Z,18.10
2018-08-23T08:06:19.903Z,17.10
2018-08-23T08:07:19.923Z,16.50
2018-08-23T08:08:19.953Z,16.00
2018-08-23T08:09:19.958Z,16.60
2018-08-23T08:10:19.968Z,15.60
2018-08-23T08:11:19.987Z,16.30
2018-08-23T08:12:20.010Z,16.00
2018-08-23T08:13:20.024Z,16.80
2018-08-23T08:14:20.050Z,16.30
2018-08-23T08:15:20.235Z,16.00
2018-08-23T08:16:20.084Z,15.10
2018-08-23T08:17:20.106Z,15.30
2018-08-23T08:18:20.129Z,15.30
2018-08-23T08:19:20.144Z,15.80
2018-08-23T08:20:20.156Z,16.40
2018-08-23T08:21:20.182Z,16.00
2018-08-23T08:22:20.192Z,16.50
2018-08-23T08:23:20.225Z,15.70
2018-08-23T08:24:20.239Z,16.50
2018-08-23T08:25:20.251Z,16.10
2018-08-23T08:26:20.278Z,15.60
2018-08-23T08:27:20.382Z,14.00
2018-08-23T08:28:20.314Z,14.50
2018-08-23T08:29:20.337Z,15.60
2018-08-23T08:30:20.354Z,15.60
2018-08-23T08:31:20.371Z,14.90
2018-08-23T08:32:20.396Z,14.40
2018-08-23T08:33:20.523Z,14.40
2018-08-23T08:34:20.429Z,13.90
2018-08-23T08:35:20.449Z,15.00
2018-08-23T08:36:20.468Z,15.10
2018-08-23T08:37:20.484Z,15.20
2018-08-23T08:38:20.507Z,14.60
2018-08-23T08:39:20.525Z,14.10
2018-08-23T08:40:20.551Z,13.90
2018-08-23T08:41:20.572Z,13.40
2018-08-23T08:42:20.584Z,13.30
2018-08-23T08:43:20.607Z,13.50
2018-08-23T08:44:20.625Z,12.50
2018-08-23T08:45:20.652Z,13.30
2018-08-23T08:46:20.678Z,12.80
2018-08-23T08:47:20.688Z,13.40
2018-08-23T08:48:20.710Z,13.90
2018-08-23T08:49:20.727Z,13.50
2018-08-23T08:50:20.797Z,13.10
2018-08-23T08:51:20.772Z,12.90
2018-08-23T08:52:20.833Z,13.70
2018-08-23T08:53:20.808Z,12.30
2018-08-23T08:54:20.828Z,12.20
2018-08-23T08:55:20.849Z,12.40
2018-08-23T08:56:20.875Z,12.30
2018-08-23T08:57:21.010Z,11.60
2018-08-23T08:58:20.911Z,11.40
2018-08-23T08:59:20.930Z,11.50
2018-08-23T09:00:20.953Z,11.50
2018-08-23T09:01:20.976Z,10.10
2018-08-23T09:02:20.992Z,10.00
2018-08-23T09:03:21.017Z,9.20
2018-08-23T09:04:21.041Z,9.90
2018-08-23T09:05:21.056Z,9.70
2018-08-23T09:06:21.079Z,9.10
2018-08-23T09:07:21.106Z,10.40
2018-08-23T09:08:21.119Z,11.00
2018-08-23T09:09:21.142Z,10.90
2018-08-23T09:10:21.162Z,11.10
2018-08-23T09:11:21.179Z,11.10
2018-08-23T09:12:21.207Z,17.60
2018-08-23T09:13:21.221Z,10.30
2018-08-23T09:14:21.250Z,10.60
2018-08-23T09:15:21.271Z,9.80
2018-08-23T09:16:21.283Z,9.70
2018-08-23T09:17:21.316Z,9.40
2018-08-23T09:18:21.331Z,9.00
2018-08-23T09:19:21.350Z,10.70
2018-08-23T09:20:21.412Z,9.50
2018-08-23T09:21:21.396Z,9.20
2018-08-23T09:22:21.416Z,9.30
2018-08-23T09:23:21.440Z,9.70
2018-08-23T09:24:21.454Z,9.60
2018-08-23T09:25:21.537Z,9.10
2018-08-23T09:26:21.509Z,8.70
2018-08-23T09:27:21.605Z,9.00
2018-08-23T09:28:21.543Z,8.90
2018-08-23T09:29:21.565Z,8.90
2018-08-23T09:30:21.590Z,9.60
2018-08-23T09:31:21.609Z,8.30
2018-08-23T09:32:21.631Z,8.30
2018-08-23T09:33:21.650Z,7.70
2018-08-23T09:34:21.669Z,7.90
2018-08-23T09:35:21.693Z,7.90
2018-08-23T09:36:21.711Z,7.40
2018-08-23T09:37:21.732Z,7.80
2018-08-23T09:38:21.759Z,7.60
2018-08-23T09:39:21.774Z,7.60
2018-08-23T09:40:21.799Z,7.40
2018-08-23T09:41:21.816Z,7.50
2018-08-23T09:42:21.838Z,7.40
2018-08-23T09:43:21.859Z,8.30
2018-08-23T09:44:21.887Z,7.40
2018-08-23T09:45:21.906Z,7.80
2018-08-23T09:46:21.921Z,7.50
2018-08-23T09:47:21.948Z,7.40
2018-08-23T09:48:21.973Z,6.80
2018-08-23T09:49:21.990Z,7.00
2018-08-23T09:50:22.004Z,6.60
2018-08-23T09:51:22.029Z,6.90
2018-08-23T09:52:22.104Z,6.30
2018-08-23T09:53:22.070Z,7.50
2018-08-23T09:54:22.097Z,7.10
2018-08-23T09:55:22.114Z,7.10
2018-08-23T09:56:22.130Z,7.20
2018-08-23T09:57:22.158Z,6.70
2018-08-23T09:58:22.177Z,6.30
2018-08-23T09:59:22.198Z,6.50
2018-08-23T10:00:22.218Z,6.10
2018-08-23T10:01:22.248Z,5.60
2018-08-23T10:02:22.263Z,5.80
2018-08-23T10:03:22.282Z,5.70
2018-08-23T10:04:22.422Z,6.00
2018-08-23T10:05:22.325Z,6.60
2018-08-23T10:06:22.344Z,6.20
2018-08-23T10:07:22.362Z,6.20
2018-08-23T10:08:22.390Z,6.40
2018-08-23T10:09:22.404Z,6.80
2018-08-23T10:10:22.433Z,6.80
2018-08-23T10:11:22.492Z,6.70
2018-08-23T10:12:22.463Z,6.30
2018-08-23T10:13:22.486Z,7.40
2018-08-23T10:14:22.510Z,7.50
2018-08-23T10:15:22.531Z,6.70
2018-08-23T10:16:22.540Z,6.70
2018-08-23T10:17:22.566Z,6.70
2018-08-23T10:18:22.579Z,7.30
2018-08-23T10:19:22.601Z,7.40
2018-08-23T10:20:23.169Z,7.10
2018-08-23T10:21:22.643Z,6.90
2018-08-23T10:22:22.665Z,7.20
2018-08-23T10:23:22.674Z,7.40
2018-08-23T10:24:22.693Z,6.80
2018-08-23T10:25:22.725Z,6.80
2018-08-23T10:26:22.791Z,6.90
2018-08-23T10:27:22.757Z,7.20
2018-08-23T10:28:22.770Z,7.60
2018-08-23T10:29:22.791Z,8.10
2018-08-23T10:30:22.802Z,8.40
2018-08-23T10:31:22.824Z,8.50
2018-08-23T10:32:22.958Z,7.80
2018-08-23T10:33:22.851Z,7.70
2018-08-23T10:34:22.872Z,7.70
2018-08-23T10:35:22.888Z,7.50
2018-08-23T10:36:22.905Z,6.80
2018-08-23T10:37:22.927Z,6.90
2018-08-23T10:38:22.939Z,7.00
2018-08-23T10:39:22.957Z,7.80
2018-08-23T10:40:22.971Z,7.70
2018-08-23T10:41:22.985Z,7.20
2018-08-23T10:42:23.004Z,7.50
2018-08-23T10:43:23.022Z,7.40
2018-08-23T10:44:23.063Z,6.80
2018-08-23T10:45:23.059Z,7.30
2018-08-23T10:46:23.071Z,6.50
2018-08-23T10:47:23.089Z,6.80
2018-08-23T10:48:23.114Z,7.20
2018-08-23T10:49:23.126Z,7.00
2018-08-23T10:50:23.140Z,7.10
2018-08-23T10:51:23.144Z,6.90
2018-08-23T10:52:23.170Z,6.70
2018-08-23T10:53:23.183Z,6.90
2018-08-23T10:54:23.197Z,7.30
2018-08-23T10:55:23.215Z,6.80
2018-08-23T10:56:23.232Z,5.80
2018-08-23T10:57:23.247Z,6.50
2018-08-23T10:58:23.289Z,6.60
2018-08-23T10:59:23.279Z,6.20
2018-08-23T11:00:23.293Z,6.60
2018-08-23T11:01:23.307Z,6.60
2018-08-23T11:02:23.320Z,6.60
2018-08-23T11:03:23.339Z,6.80
2018-08-23T11:04:23.355Z,6.80
2018-08-23T11:05:23.372Z,6.30
2018-08-23T11:06:23.388Z,6.10
2018-08-23T11:07:23.400Z,6.40
2018-08-23T11:08:23.420Z,5.70
2018-08-23T11:09:23.435Z,5.60
2018-08-23T11:10:23.455Z,6.40
2018-08-23T11:11:23.478Z,5.90
2018-08-23T11:12:23.490Z,6.00
2018-08-23T11:13:23.505Z,6.90
2018-08-23T11:14:23.594Z,7.10
2018-08-23T11:15:23.543Z,8.00
2018-08-23T11:16:23.559Z,6.80
2018-08-23T11:17:23.572Z,6.20
2018-08-23T11:18:23.592Z,6.40
2018-08-23T11:19:23.605Z,6.10
2018-08-23T11:20:23.623Z,6.70
2018-08-23T11:21:23.642Z,5.90
2018-08-23T11:22:23.658Z,6.00
2018-08-23T11:23:23.671Z,6.20
2018-08-23T11:24:23.695Z,5.30
2018-08-23T11:25:23.713Z,6.20
2018-08-23T11:26:23.731Z,5.70
2018-08-23T11:27:23.736Z,5.90
2018-08-23T11:28:23.753Z,6.30
2018-08-23T11:29:23.793Z,6.80
2018-08-23T11:30:23.787Z,6.30
2018-08-23T11:31:23.804Z,6.70
2018-08-23T11:32:23.837Z,7.00
2018-08-23T11:33:23.843Z,7.20
2018-08-23T11:34:23.852Z,7.10
2018-08-23T11:35:23.869Z,6.20
2018-08-23T11:36:23.890Z,6.90
2018-08-23T11:37:23.899Z,7.20
2018-08-23T11:38:23.919Z,6.20
2018-08-23T11:39:23.935Z,6.70
2018-08-23T11:40:23.949Z,6.10
2018-08-23T11:41:23.968Z,6.40
2018-08-23T11:42:23.978Z,6.70
2018-08-23T11:43:23.994Z,6.40
2018-08-23T11:44:24.025Z,6.20
2018-08-23T11:45:24.027Z,6.50
2018-08-23T11:46:24.044Z,6.60
2018-08-23T11:47:24.050Z,7.00
2018-08-23T11:48:24.074Z,7.50
2018-08-23T11:49:24.094Z,6.70
2018-08-23T11:50:24.112Z,7.80
2018-08-23T11:51:24.116Z,6.90
2018-08-23T11:52:24.157Z,6.10
2018-08-23T11:53:24.332Z,6.00
2018-08-23T11:54:24.167Z,6.30
2018-08-23T11:55:24.175Z,7.60
2018-08-23T11:56:24.208Z,6.50
2018-08-23T11:57:24.208Z,5.60
2018-08-23T11:58:24.222Z,5.60
2018-08-23T11:59:24.238Z,5.80
2018-08-23T12:00:24.259Z,5.50
2018-08-23T12:01:24.277Z,5.00
2018-08-23T12:02:24.281Z,5.00
2018-08-23T12:03:24.303Z,5.30
2018-08-23T12:04:24.358Z,5.70
2018-08-23T12:05:24.329Z,6.60
2018-08-23T12:06:24.364Z,7.10
2018-08-23T12:07:24.355Z,6.00
2018-08-23T12:08:24.376Z,6.60
2018-08-23T12:09:24.383Z,6.90
2018-08-23T12:10:24.402Z,8.00
2018-08-23T12:11:24.412Z,6.90
2018-08-23T12:12:24.429Z,6.70
2018-08-23T12:13:24.439Z,6.40
2018-08-23T12:14:24.452Z,6.20
2018-08-23T12:15:24.493Z,6.20
2018-08-23T12:16:24.482Z,6.20
2018-08-23T12:17:24.497Z,6.60
2018-08-23T12:18:24.507Z,6.20
2018-08-23T12:19:24.532Z,6.20
2018-08-23T12:20:24.539Z,6.10
2018-08-23T12:21:24.553Z,6.20
2018-08-23T12:22:24.566Z,6.40
2018-08-23T12:23:24.575Z,6.20
2018-08-23T12:24:24.590Z,6.20
2018-08-23T12:25:24.601Z,6.00
2018-08-23T12:26:24.622Z,5.80
2018-08-23T12:27:24.634Z,6.40
2018-08-23T12:28:24.643Z,6.20
2018-08-23T12:29:24.658Z,5.40
2018-08-23T12:30:24.668Z,5.50
2018-08-23T12:31:24.676Z,6.10
2018-08-23T12:32:24.691Z,5.30
2018-08-23T12:33:24.709Z,5.50
2018-08-23T12:34:24.719Z,5.10
2018-08-23T12:35:24.731Z,5.20
2018-08-23T12:36:24.744Z,4.90
2018-08-23T12:37:24.758Z,5.90
2018-08-23T12:38:24.768Z,5.30
2018-08-23T12:39:24.783Z,5.70
2018-08-23T12:40:24.835Z,5.60
2018-08-23T12:41:24.806Z,5.70
2018-08-23T12:42:24.838Z,6.70
2018-08-23T12:43:24.871Z,6.80
2018-08-23T12:44:24.845Z,8.10
2018-08-23T12:45:24.855Z,7.40
2018-08-23T12:46:24.873Z,7.90
2018-08-23T12:47:24.881Z,7.60
2018-08-23T12:48:24.902Z,6.80
2018-08-23T12:49:25.045Z,6.90
2018-08-23T12:50:24.919Z,6.50
2018-08-23T12:51:24.930Z,6.60
2018-08-23T12:52:24.947Z,6.50
2018-08-23T12:53:25.028Z,6.50
2018-08-23T12:54:25.049Z,6.80
2018-08-23T12:55:24.978Z,6.80
2018-08-23T12:56:25.016Z,7.80
2018-08-23T12:57:25.005Z,8.60
2018-08-23T12:58:25.014Z,7.10
2018-08-23T12:59:25.035Z,8.40
2018-08-23T13:00:25.040Z,7.60